Grassy Meadows, West Virginia
Current Conditions -  °F | °C
As of 2:15 PM on Friday 28 Nov 2014 (Local Time) from KLWB Reporting Station
Scattered Clouds Scattered Clouds  
Wind Chill: 23°   Ceiling: Unl
Heat Index: 29°   Visibility: 10mi
Dew Point: 16°   Wind: 6mph
Humidity: 57%   Direction: 280°W
Pressure: 30.24"   Gusts: NA
Location:  37.83°N, 80.73°W
Report Text: KLWB 281915Z AUTO 28005KT 10SM SCT030 M01/M09 A3024 RMK AO2 T10151091
Loading
Personal Weather Stations






























Interactive Weather Map New forecast layout! Learn more

10-Day Weather Forecast

Advertisements
Track Severe Weather on mobile